createdAt,value
2019-03-19T00:01:57.733Z,6.80
2019-03-19T00:04:26.743Z,6.70
2019-03-19T00:06:55.764Z,6.70
2019-03-19T00:09:24.817Z,6.60
2019-03-19T00:11:53.857Z,6.60
2019-03-19T00:14:22.902Z,6.60
2019-03-19T00:16:51.859Z,6.50
2019-03-19T00:19:22.556Z,6.50
2019-03-19T00:21:51.766Z,6.40
2019-03-19T00:24:20.853Z,6.40
2019-03-19T00:26:49.915Z,6.30
2019-03-19T00:29:18.946Z,6.30
2019-03-19T00:31:48.028Z,6.20
2019-03-19T00:34:17.066Z,6.20
2019-03-19T00:36:46.126Z,6.10
2019-03-19T00:39:15.150Z,6.10
2019-03-19T00:41:44.174Z,6.10
2019-03-19T00:44:13.197Z,6.00
2019-03-19T00:46:42.235Z,6.00
2019-03-19T00:49:11.206Z,6.00
2019-03-19T00:51:40.279Z,5.90
2019-03-19T00:54:09.306Z,5.90
2019-03-19T00:56:38.304Z,5.90
2019-03-19T00:59:08.689Z,5.90
2019-03-19T01:01:38.817Z,5.90
2019-03-19T01:04:07.982Z,5.90
2019-03-19T01:06:36.994Z,5.80
2019-03-19T01:09:07.399Z,5.80
2019-03-19T01:11:36.393Z,5.80
2019-03-19T01:14:05.425Z,5.70
2019-03-19T01:16:34.427Z,5.70
2019-03-19T01:19:03.509Z,5.70
2019-03-19T01:21:32.551Z,5.70
2019-03-19T01:24:01.680Z,5.60
2019-03-19T01:26:30.739Z,5.70
2019-03-19T01:28:59.810Z,5.60
2019-03-19T01:31:28.838Z,5.60
2019-03-19T01:33:57.849Z,5.50
2019-03-19T01:36:26.863Z,5.60
2019-03-19T01:38:55.970Z,5.50
2019-03-19T01:41:24.898Z,5.50
2019-03-19T01:43:53.899Z,5.40
2019-03-19T01:46:22.954Z,5.40
2019-03-19T01:48:52.014Z,5.40
2019-03-19T01:51:20.976Z,5.30
2019-03-19T01:53:50.020Z,5.30
2019-03-19T01:56:19.097Z,5.20
2019-03-19T01:58:48.158Z,5.20
2019-03-19T02:01:18.401Z,5.20
2019-03-19T02:03:47.477Z,5.10
2019-03-19T02:06:16.522Z,5.10
2019-03-19T02:08:45.606Z,5.00
2019-03-19T02:11:14.646Z,5.00
2019-03-19T02:13:43.683Z,4.90
2019-03-19T02:16:12.784Z,4.90
2019-03-19T02:18:41.801Z,4.90
2019-03-19T02:21:10.865Z,4.90
2019-03-19T02:23:39.939Z,4.80
2019-03-19T02:26:16.388Z,4.80
2019-03-19T02:28:39.730Z,4.80
2019-03-19T02:31:08.856Z,4.80
2019-03-19T02:33:37.939Z,4.70
2019-03-19T02:36:06.944Z,4.70
2019-03-19T02:38:55.161Z,4.70
2019-03-19T02:41:24.204Z,4.70
2019-03-19T02:43:53.247Z,4.60
2019-03-19T02:46:22.285Z,4.60
2019-03-19T02:48:51.317Z,4.60
2019-03-19T02:51:20.305Z,4.60
2019-03-19T02:53:49.325Z,4.60
2019-03-19T02:56:31.822Z,4.50
2019-03-19T02:58:49.141Z,4.50
2019-03-19T03:01:18.186Z,4.50
2019-03-19T03:03:47.230Z,4.50
2019-03-19T03:06:16.300Z,4.50
2019-03-19T03:08:45.315Z,4.40
2019-03-19T03:11:14.606Z,4.40
2019-03-19T03:13:43.655Z,4.40
2019-03-19T03:16:12.775Z,4.40
2019-03-19T03:18:41.854Z,4.40
2019-03-19T03:21:10.878Z,4.30
2019-03-19T03:23:39.897Z,4.30
2019-03-19T03:26:09.040Z,4.30
2019-03-19T03:28:38.134Z,4.20
2019-03-19T03:31:07.240Z,4.20
2019-03-19T03:33:36.375Z,4.20
2019-03-19T03:36:05.388Z,4.10
2019-03-19T03:38:34.367Z,4.10
2019-03-19T03:41:05.191Z,4.10
2019-03-19T03:43:34.144Z,4.10
2019-03-19T03:46:03.199Z,4.10
2019-03-19T03:48:43.957Z,4.10
2019-03-19T03:51:13.010Z,4.00
2019-03-19T03:53:42.043Z,4.00
2019-03-19T03:56:11.062Z,4.00
2019-03-19T03:58:40.212Z,4.00
2019-03-19T04:01:09.353Z,4.00
2019-03-19T04:03:38.427Z,3.90
2019-03-19T04:06:07.437Z,3.90
2019-03-19T04:08:36.485Z,3.90
2019-03-19T04:11:05.548Z,3.90
2019-03-19T04:13:34.677Z,3.90
2019-03-19T04:16:03.744Z,3.80
2019-03-19T04:18:32.855Z,3.80
2019-03-19T04:21:01.893Z,3.80
2019-03-19T04:23:30.919Z,3.70
2019-03-19T04:25:59.961Z,3.70
2019-03-19T04:28:29.085Z,3.70
2019-03-19T04:30:58.086Z,3.70
2019-03-19T04:33:27.197Z,3.60
2019-03-19T04:35:56.257Z,3.60
2019-03-19T04:38:25.278Z,3.60
2019-03-19T04:40:54.310Z,3.60
2019-03-19T04:43:23.466Z,3.60
2019-03-19T04:45:52.610Z,3.50
2019-03-19T04:48:21.544Z,3.50
2019-03-19T04:50:50.581Z,3.50
2019-03-19T04:53:19.609Z,3.50
2019-03-19T04:55:48.595Z,3.50
2019-03-19T04:58:17.603Z,3.50
2019-03-19T05:00:46.675Z,3.50
2019-03-19T05:03:15.717Z,3.40
2019-03-19T05:05:44.726Z,3.40
2019-03-19T05:08:13.813Z,3.40
2019-03-19T05:10:42.998Z,3.40
2019-03-19T05:13:12.027Z,3.30
2019-03-19T05:15:41.039Z,3.30
2019-03-19T05:18:10.102Z,3.30
2019-03-19T05:20:39.188Z,3.30
2019-03-19T05:23:08.259Z,3.30
2019-03-19T05:25:37.317Z,3.20
2019-03-19T05:28:06.476Z,3.20
2019-03-19T05:30:35.603Z,3.20
2019-03-19T05:33:04.709Z,3.20
2019-03-19T05:35:33.787Z,3.20
2019-03-19T05:38:03.114Z,3.20
2019-03-19T05:40:32.173Z,3.10
2019-03-19T05:43:01.351Z,3.10
2019-03-19T05:45:30.422Z,3.10
2019-03-19T05:47:59.880Z,3.10
2019-03-19T05:50:28.933Z,3.10
2019-03-19T05:52:58.001Z,3.00
2019-03-19T05:55:27.055Z,3.00
2019-03-19T05:57:56.140Z,3.00
2019-03-19T06:00:26.604Z,3.00
2019-03-19T06:02:55.781Z,3.00
2019-03-19T06:05:24.838Z,3.00
2019-03-19T06:07:53.899Z,3.10
2019-03-19T06:10:22.905Z,3.10
2019-03-19T06:12:52.059Z,3.10
2019-03-19T06:15:21.105Z,3.10
2019-03-19T06:17:50.122Z,3.10
2019-03-19T06:20:19.166Z,3.20
2019-03-19T06:22:48.226Z,3.20
2019-03-19T06:25:17.318Z,3.20
2019-03-19T06:27:46.322Z,3.30
2019-03-19T06:30:16.000Z,3.30
2019-03-19T06:32:45.070Z,3.30
2019-03-19T06:35:14.091Z,3.40
2019-03-19T06:37:43.143Z,3.40
2019-03-19T06:40:13.154Z,3.40
2019-03-19T06:42:43.358Z,3.40
2019-03-19T06:45:13.547Z,3.50
2019-03-19T06:47:42.601Z,3.50
2019-03-19T06:50:12.176Z,3.50
2019-03-19T06:52:41.302Z,3.50
2019-03-19T06:55:10.919Z,3.60
2019-03-19T06:57:40.070Z,3.60
2019-03-19T07:00:17.406Z,3.70
2019-03-19T07:02:46.463Z,3.70
2019-03-19T07:05:16.743Z,3.70
2019-03-19T07:07:45.828Z,3.70
2019-03-19T07:10:14.870Z,3.80
2019-03-19T07:12:43.939Z,3.80
2019-03-19T07:15:13.770Z,3.90
2019-03-19T07:17:42.859Z,3.90
2019-03-19T07:20:13.245Z,3.90
2019-03-19T07:22:42.353Z,3.90
2019-03-19T07:25:11.454Z,4.00
2019-03-19T07:27:40.567Z,4.00
2019-03-19T07:30:12.148Z,4.10
2019-03-19T07:32:41.198Z,4.10
2019-03-19T07:35:10.306Z,4.20
2019-03-19T07:37:39.381Z,4.20
2019-03-19T07:40:09.373Z,4.30
2019-03-19T07:42:38.401Z,4.30
2019-03-19T07:45:09.346Z,4.30
2019-03-19T07:47:38.405Z,4.40
2019-03-19T07:50:08.642Z,4.40
2019-03-19T07:52:56.844Z,4.50
2019-03-19T07:55:25.932Z,4.50
2019-03-19T07:57:54.975Z,4.50
2019-03-19T08:00:23.945Z,4.60
2019-03-19T08:02:52.966Z,4.60
2019-03-19T08:05:32.213Z,4.70
2019-03-19T08:07:52.806Z,4.70
2019-03-19T08:10:21.779Z,4.80
2019-03-19T08:12:50.770Z,4.80
2019-03-19T08:15:19.816Z,4.80
2019-03-19T08:17:48.874Z,4.90
2019-03-19T08:20:18.177Z,5.00
2019-03-19T08:22:47.331Z,5.00
2019-03-19T08:25:16.495Z,5.10
2019-03-19T08:27:45.506Z,5.20
2019-03-19T08:30:15.849Z,5.30
2019-03-19T08:32:44.912Z,5.30
2019-03-19T08:35:13.984Z,5.40
2019-03-19T08:38:02.192Z,5.40
2019-03-19T08:40:31.204Z,5.50
2019-03-19T08:43:00.254Z,5.60
2019-03-19T08:45:29.326Z,5.70
2019-03-19T08:47:58.909Z,5.80
2019-03-19T08:50:27.978Z,5.90
2019-03-19T08:52:57.045Z,6.00
2019-03-19T08:55:26.129Z,6.00
2019-03-19T08:57:55.197Z,6.10
2019-03-19T09:00:24.365Z,6.20
2019-03-19T09:02:53.369Z,6.30
2019-03-19T09:05:22.448Z,6.40
2019-03-19T09:07:51.524Z,6.40
2019-03-19T09:10:20.580Z,6.60
2019-03-19T09:12:49.735Z,6.60
2019-03-19T09:15:18.797Z,6.70
2019-03-19T09:17:47.814Z,6.80
2019-03-19T09:20:16.881Z,6.90
2019-03-19T09:22:45.909Z,7.00
2019-03-19T09:25:14.994Z,7.10
2019-03-19T09:27:44.056Z,7.10
2019-03-19T09:30:14.590Z,7.20
2019-03-19T09:32:43.642Z,7.30
2019-03-19T09:35:12.677Z,7.50
2019-03-19T09:37:46.301Z,7.60
2019-03-19T09:40:13.626Z,7.70
2019-03-19T09:42:42.680Z,7.80
2019-03-19T09:45:12.158Z,7.90
2019-03-19T09:47:41.210Z,8.00
2019-03-19T09:50:11.248Z,8.20
2019-03-19T09:52:40.328Z,8.30
2019-03-19T09:55:09.954Z,8.50
2019-03-19T09:57:38.919Z,8.60
2019-03-19T10:00:09.983Z,8.80
2019-03-19T10:02:39.018Z,8.90
2019-03-19T10:05:08.043Z,9.10
2019-03-19T10:07:37.040Z,9.40
2019-03-19T10:10:06.838Z,9.70
2019-03-19T10:12:35.806Z,9.90
2019-03-19T10:15:05.078Z,10.20
2019-03-19T10:17:34.099Z,10.50
2019-03-19T10:20:03.273Z,10.70
2019-03-19T10:22:32.312Z,11.00
2019-03-19T10:25:01.346Z,11.30
2019-03-19T10:27:30.367Z,11.70
2019-03-19T10:29:59.365Z,12.10
2019-03-19T10:32:28.386Z,12.50
2019-03-19T10:34:57.446Z,12.80
2019-03-19T10:37:26.487Z,13.20
2019-03-19T10:39:55.485Z,13.50
2019-03-19T10:42:24.465Z,13.80
2019-03-19T10:44:53.510Z,14.00
2019-03-19T10:47:22.649Z,14.20
2019-03-19T10:49:51.695Z,14.40
2019-03-19T10:52:20.737Z,14.60
2019-03-19T10:54:49.834Z,14.70
2019-03-19T10:57:18.840Z,14.90
2019-03-19T10:59:49.557Z,15.10
2019-03-19T11:02:18.634Z,15.30
2019-03-19T11:04:47.688Z,15.50
2019-03-19T11:07:16.758Z,15.70
2019-03-19T11:09:45.830Z,16.00
2019-03-19T11:12:14.895Z,16.30
2019-03-19T11:14:43.867Z,16.50
2019-03-19T11:17:12.876Z,16.70
2019-03-19T11:19:41.950Z,16.90
2019-03-19T11:22:10.965Z,17.00
2019-03-19T11:24:40.023Z,17.10
2019-03-19T11:27:09.035Z,17.20
2019-03-19T11:29:38.055Z,17.40
2019-03-19T11:32:07.123Z,17.50
2019-03-19T11:34:36.193Z,17.70
2019-03-19T11:37:05.344Z,17.90
2019-03-19T11:39:34.430Z,18.10
2019-03-19T11:42:03.469Z,18.30
2019-03-19T11:44:32.513Z,18.50
2019-03-19T11:47:01.539Z,18.80
2019-03-19T11:49:30.504Z,19.00
2019-03-19T11:51:59.581Z,19.30
2019-03-19T11:54:28.589Z,19.50
2019-03-19T11:56:57.622Z,19.70
2019-03-19T11:59:26.734Z,19.80
2019-03-19T12:01:55.854Z,19.90
2019-03-19T12:04:24.901Z,20.00
2019-03-19T12:06:53.967Z,20.00
2019-03-19T12:09:23.032Z,20.10
2019-03-19T12:11:52.090Z,20.20
2019-03-19T12:14:21.135Z,20.30
2019-03-19T12:16:50.201Z,20.40
2019-03-19T12:19:19.222Z,20.60
2019-03-19T12:21:48.257Z,20.80
2019-03-19T12:24:17.291Z,21.10
2019-03-19T12:26:46.403Z,21.30
2019-03-19T12:29:15.402Z,21.60
2019-03-19T12:31:44.476Z,21.70
2019-03-19T12:34:13.495Z,22.00
2019-03-19T12:36:42.487Z,22.20
2019-03-19T12:39:11.574Z,22.30
2019-03-19T12:41:40.633Z,22.30
2019-03-19T12:44:09.694Z,22.30
2019-03-19T12:46:38.782Z,22.30
2019-03-19T12:49:07.961Z,22.30
2019-03-19T12:51:36.968Z,22.20
2019-03-19T12:54:05.993Z,22.10
2019-03-19T12:56:37.738Z,21.90
2019-03-19T12:59:06.679Z,21.80
2019-03-19T13:01:35.952Z,21.60
2019-03-19T13:04:05.096Z,21.50
2019-03-19T13:06:34.323Z,21.30
2019-03-19T13:09:03.390Z,21.20
2019-03-19T13:11:32.476Z,21.10
2019-03-19T13:14:01.504Z,21.00
2019-03-19T13:16:30.509Z,20.90
2019-03-19T13:18:59.507Z,20.80
2019-03-19T13:21:28.517Z,20.70
2019-03-19T13:23:57.538Z,20.50
2019-03-19T13:26:26.617Z,20.40
2019-03-19T13:28:55.656Z,20.40
2019-03-19T13:31:24.698Z,20.30
2019-03-19T13:33:53.766Z,20.20
2019-03-19T13:36:22.777Z,20.10
2019-03-19T13:38:51.782Z,20.00
2019-03-19T13:41:20.758Z,19.90
2019-03-19T13:43:49.743Z,19.80
2019-03-19T13:46:18.753Z,19.80
2019-03-19T13:48:47.859Z,19.70
2019-03-19T13:51:16.942Z,19.70
2019-03-19T13:53:45.982Z,19.80
2019-03-19T13:56:16.037Z,19.90
2019-03-19T13:58:45.083Z,19.90
2019-03-19T14:01:14.278Z,20.00
2019-03-19T14:03:43.306Z,20.10
2019-03-19T14:06:12.385Z,20.30
2019-03-19T14:08:41.383Z,20.50
2019-03-19T14:11:10.375Z,20.70
2019-03-19T14:13:39.381Z,21.00
2019-03-19T14:16:08.319Z,21.10
2019-03-19T14:18:37.357Z,21.30
2019-03-19T14:21:06.380Z,21.40
2019-03-19T14:23:35.476Z,21.50
2019-03-19T14:26:04.601Z,21.60
2019-03-19T14:28:33.650Z,21.60
2019-03-19T14:31:08.576Z,21.70
2019-03-19T14:33:33.366Z,21.90
2019-03-19T14:36:02.415Z,22.00
2019-03-19T14:38:31.456Z,22.10
2019-03-19T14:41:00.461Z,22.10
2019-03-19T14:43:29.554Z,22.20
2019-03-19T14:45:58.638Z,22.30
2019-03-19T14:48:27.646Z,22.30
2019-03-19T14:50:56.754Z,22.30
2019-03-19T14:53:25.845Z,22.40
2019-03-19T14:55:54.962Z,22.50
2019-03-19T14:58:23.977Z,22.50
2019-03-19T15:00:52.979Z,22.60
2019-03-19T15:03:21.974Z,22.60
2019-03-19T15:05:50.979Z,22.60
2019-03-19T15:08:20.070Z,22.70
2019-03-19T15:10:49.155Z,22.80
2019-03-19T15:13:18.188Z,22.80
2019-03-19T15:15:47.286Z,22.80
2019-03-19T15:18:16.255Z,22.80
2019-03-19T15:20:45.334Z,22.80
2019-03-19T15:23:14.421Z,22.80
2019-03-19T15:25:43.455Z,22.80
2019-03-19T15:28:12.463Z,22.80
2019-03-19T15:30:41.476Z,22.90
2019-03-19T15:33:10.546Z,23.00
2019-03-19T15:35:39.541Z,23.20
2019-03-19T15:38:08.615Z,23.40
2019-03-19T15:40:37.727Z,23.50
2019-03-19T15:43:06.774Z,23.50
2019-03-19T15:45:38.622Z,23.50
2019-03-19T15:48:07.762Z,23.30
2019-03-19T15:50:40.023Z,23.20
2019-03-19T15:53:09.102Z,23.10
2019-03-19T15:55:39.326Z,23.00
2019-03-19T15:58:08.383Z,23.00
2019-03-19T16:00:37.616Z,22.90
2019-03-19T16:03:06.673Z,22.70
2019-03-19T16:05:37.809Z,22.70
2019-03-19T16:08:06.862Z,22.60
2019-03-19T16:10:35.933Z,22.50
2019-03-19T16:13:04.991Z,22.50
2019-03-19T16:15:34.143Z,22.40
2019-03-19T16:18:03.189Z,22.30
2019-03-19T16:20:32.274Z,22.20
2019-03-19T16:23:01.299Z,22.10
2019-03-19T16:25:30.299Z,22.10
2019-03-19T16:27:59.352Z,22.00
2019-03-19T16:30:28.487Z,22.00
2019-03-19T16:32:57.645Z,21.90
2019-03-19T16:35:26.699Z,21.80
2019-03-19T16:37:55.730Z,21.70
2019-03-19T16:40:24.799Z,21.50
2019-03-19T16:42:53.792Z,21.40
2019-03-19T16:45:22.807Z,21.20
2019-03-19T16:47:51.881Z,21.10
2019-03-19T16:50:20.894Z,20.90
2019-03-19T16:52:49.914Z,20.80
2019-03-19T16:55:18.936Z,20.60
2019-03-19T16:57:47.985Z,20.50
2019-03-19T17:00:17.630Z,20.30
2019-03-19T17:02:46.717Z,20.20
2019-03-19T17:05:16.343Z,20.00
2019-03-19T17:07:45.341Z,19.90
2019-03-19T17:10:14.946Z,19.70
2019-03-19T17:12:43.946Z,19.60
2019-03-19T17:15:13.543Z,19.50
2019-03-19T17:17:44.791Z,19.40
2019-03-19T17:20:15.770Z,19.30
2019-03-19T17:22:44.890Z,19.20
2019-03-19T17:25:14.955Z,19.20
2019-03-19T17:27:44.063Z,19.10
2019-03-19T17:30:17.271Z,19.00
2019-03-19T17:32:46.440Z,18.90
2019-03-19T17:35:15.533Z,18.80
2019-03-19T17:37:44.590Z,18.70
2019-03-19T17:40:15.165Z,18.60
2019-03-19T17:42:44.232Z,18.50
2019-03-19T17:45:13.335Z,18.40
2019-03-19T17:47:42.457Z,18.30
2019-03-19T17:50:48.748Z,18.20
2019-03-19T17:53:17.910Z,18.10
2019-03-19T17:55:46.974Z,18.00
2019-03-19T17:58:18.421Z,17.90
2019-03-19T18:00:49.093Z,17.80
2019-03-19T18:03:18.124Z,17.70
2019-03-19T18:05:47.201Z,17.60
2019-03-19T18:08:16.369Z,17.50
2019-03-19T18:10:45.445Z,17.40
2019-03-19T18:13:14.510Z,17.30
2019-03-19T18:15:43.624Z,17.20
2019-03-19T18:18:24.220Z,17.10
2019-03-19T18:20:53.249Z,17.00
2019-03-19T18:23:22.314Z,16.90
2019-03-19T18:25:51.308Z,16.80
2019-03-19T18:28:20.333Z,16.80
2019-03-19T18:30:49.382Z,16.70
2019-03-19T18:33:18.397Z,16.60
2019-03-19T18:35:47.423Z,16.50
2019-03-19T18:38:16.453Z,16.40
2019-03-19T18:40:45.521Z,16.30
2019-03-19T18:43:14.561Z,16.20
2019-03-19T18:45:43.541Z,16.20
2019-03-19T18:48:12.532Z,16.10
2019-03-19T18:50:41.569Z,16.00
2019-03-19T18:53:10.582Z,16.00
2019-03-19T18:55:39.604Z,15.90
2019-03-19T18:58:08.599Z,15.80
2019-03-19T19:00:37.632Z,15.80
2019-03-19T19:03:06.779Z,15.70
2019-03-19T19:05:35.827Z,15.70
2019-03-19T19:08:04.922Z,15.60
2019-03-19T19:10:33.983Z,15.50
2019-03-19T19:13:03.098Z,15.50
2019-03-19T19:15:32.264Z,15.50
2019-03-19T19:18:01.420Z,15.40
2019-03-19T19:20:30.467Z,15.30
2019-03-19T19:22:59.537Z,15.20
2019-03-19T19:25:28.596Z,15.10
2019-03-19T19:27:57.658Z,15.10
2019-03-19T19:30:26.694Z,15.00
2019-03-19T19:33:01.642Z,15.00
2019-03-19T19:35:26.614Z,14.90
2019-03-19T19:37:55.716Z,14.80
2019-03-19T19:40:24.783Z,14.80
2019-03-19T19:42:53.798Z,14.80
2019-03-19T19:45:22.854Z,14.70
2019-03-19T19:47:51.949Z,14.60
2019-03-19T19:50:20.990Z,14.50
2019-03-19T19:52:50.267Z,14.40
2019-03-19T19:55:19.351Z,14.40
2019-03-19T19:57:48.501Z,14.40
2019-03-19T20:00:17.594Z,14.30
2019-03-19T20:02:46.674Z,14.20
2019-03-19T20:05:15.840Z,14.20
2019-03-19T20:07:44.953Z,14.10
2019-03-19T20:10:15.740Z,14.10
2019-03-19T20:12:44.808Z,13.90
2019-03-19T20:15:13.938Z,13.80
2019-03-19T20:17:43.004Z,13.70
2019-03-19T20:20:13.923Z,13.60
2019-03-19T20:22:44.787Z,13.50
2019-03-19T20:25:14.019Z,13.50
2019-03-19T20:27:43.072Z,13.40
2019-03-19T20:30:17.017Z,13.40
2019-03-19T20:32:46.008Z,13.40
2019-03-19T20:35:14.988Z,13.30
2019-03-19T20:37:44.178Z,13.30
2019-03-19T20:40:13.564Z,13.30
2019-03-19T20:42:42.781Z,13.20
2019-03-19T20:45:12.216Z,13.10
2019-03-19T20:47:41.249Z,13.10
2019-03-19T20:50:13.188Z,13.10
2019-03-19T20:52:42.270Z,13.10
2019-03-19T20:55:11.352Z,13.00
2019-03-19T20:57:40.417Z,13.00
2019-03-19T21:00:11.771Z,12.90
2019-03-19T21:02:40.802Z,12.90
2019-03-19T21:05:09.834Z,12.90
2019-03-19T21:07:38.815Z,12.90
2019-03-19T21:10:09.413Z,12.80
2019-03-19T21:12:38.496Z,12.80
2019-03-19T21:15:08.033Z,12.80
2019-03-19T21:17:37.197Z,12.70
2019-03-19T21:20:06.247Z,12.70
2019-03-19T21:22:35.389Z,12.70
2019-03-19T21:25:04.495Z,12.60
2019-03-19T21:27:33.553Z,12.60
2019-03-19T21:30:02.593Z,12.60
2019-03-19T21:32:31.759Z,12.50
2019-03-19T21:35:00.850Z,12.50
2019-03-19T21:37:29.891Z,12.50
2019-03-19T21:39:58.911Z,12.50
2019-03-19T21:42:27.989Z,12.40
2019-03-19T21:44:57.046Z,12.40
2019-03-19T21:47:26.126Z,12.40
2019-03-19T21:49:55.194Z,12.40
2019-03-19T21:52:24.231Z,12.40
2019-03-19T21:54:53.283Z,12.40
2019-03-19T21:57:22.323Z,12.30
2019-03-19T21:59:51.304Z,12.30
2019-03-19T22:02:20.475Z,12.30
2019-03-19T22:04:49.489Z,12.30
2019-03-19T22:07:18.510Z,12.20
2019-03-19T22:09:47.576Z,12.10
2019-03-19T22:12:16.594Z,12.10
2019-03-19T22:14:45.636Z,12.10
2019-03-19T22:17:14.694Z,12.10
2019-03-19T22:19:43.710Z,12.00
2019-03-19T22:22:12.780Z,12.00
2019-03-19T22:24:41.835Z,11.90
2019-03-19T22:27:10.889Z,11.90
2019-03-19T22:29:39.923Z,11.90
2019-03-19T22:32:09.077Z,11.80
2019-03-19T22:34:38.093Z,11.80
2019-03-19T22:37:07.121Z,11.80
2019-03-19T22:39:36.154Z,11.70
2019-03-19T22:42:05.173Z,11.70
2019-03-19T22:44:34.234Z,11.70
2019-03-19T22:47:03.239Z,11.60
2019-03-19T22:49:32.327Z,11.60
2019-03-19T22:52:01.356Z,11.60
2019-03-19T22:54:30.396Z,11.50
2019-03-19T22:56:59.449Z,11.50
2019-03-19T22:59:28.585Z,11.50
2019-03-19T23:01:57.592Z,11.40
2019-03-19T23:04:27.421Z,11.40
2019-03-19T23:06:56.664Z,11.40
2019-03-19T23:09:25.721Z,11.40
2019-03-19T23:11:54.718Z,11.40
2019-03-19T23:14:23.690Z,11.30
2019-03-19T23:16:52.746Z,11.30
2019-03-19T23:19:21.703Z,11.30
2019-03-19T23:21:50.730Z,11.30
2019-03-19T23:24:19.886Z,11.30
2019-03-19T23:26:49.092Z,11.20
2019-03-19T23:29:18.121Z,11.20
2019-03-19T23:31:47.213Z,11.20
2019-03-19T23:34:16.283Z,11.10
2019-03-19T23:36:45.304Z,11.10
2019-03-19T23:39:14.313Z,11.10
2019-03-19T23:41:43.341Z,11.10
2019-03-19T23:44:12.501Z,11.00
2019-03-19T23:46:42.435Z,11.00
2019-03-19T23:49:11.460Z,11.00
2019-03-19T23:51:40.478Z,11.00
2019-03-19T23:54:09.501Z,11.00
2019-03-19T23:56:38.535Z,10.90
2019-03-19T23:59:07.595Z,10.90
